createdAt,value
2018-04-10T00:01:49.653Z,29.83
2018-04-10T00:04:15.717Z,27.45
2018-04-10T00:06:41.748Z,27.13
2018-04-10T00:09:07.756Z,26.92
2018-04-10T00:11:33.773Z,25.40
2018-04-10T00:13:59.829Z,25.77
2018-04-10T00:16:25.914Z,29.63
2018-04-10T00:18:52.076Z,26.75
2018-04-10T00:21:18.096Z,28.92
2018-04-10T00:23:44.109Z,27.50
2018-04-10T00:26:10.212Z,30.90
2018-04-10T00:28:36.263Z,32.55
2018-04-10T00:31:02.361Z,27.77
2018-04-10T00:33:28.439Z,27.35
2018-04-10T00:35:54.699Z,27.92
2018-04-10T00:38:20.750Z,32.53
2018-04-10T00:40:46.789Z,27.95
2018-04-10T00:43:12.792Z,32.60
2018-04-10T00:45:39.258Z,26.40
2018-04-10T00:48:05.480Z,28.08
2018-04-10T00:50:31.516Z,29.63
2018-04-10T00:53:09.624Z,32.65
2018-04-10T00:55:35.696Z,28.48
2018-04-10T00:58:01.784Z,31.87
2018-04-10T01:00:27.809Z,31.40
2018-04-10T01:02:53.904Z,28.90
2018-04-10T01:05:20.005Z,28.20
2018-04-10T01:07:46.072Z,32.38
2018-04-10T01:10:12.160Z,33.58
2018-04-10T01:12:38.211Z,33.47
2018-04-10T01:15:04.234Z,29.42
2018-04-10T01:17:30.315Z,29.52
2018-04-10T01:19:56.564Z,31.85
2018-04-10T01:22:22.758Z,28.87
2018-04-10T01:24:48.831Z,29.00
2018-04-10T01:27:14.892Z,29.12
2018-04-10T01:29:41.068Z,29.85
2018-04-10T01:32:07.174Z,32.22
2018-04-10T01:34:33.205Z,35.85
2018-04-10T01:36:59.226Z,36.25
2018-04-10T01:39:25.433Z,31.48
2018-04-10T01:41:51.457Z,38.00
2018-04-10T01:44:17.455Z,31.33
2018-04-10T01:46:43.525Z,36.15
2018-04-10T01:49:09.543Z,37.38
2018-04-10T01:51:35.687Z,37.70
2018-04-10T01:54:01.695Z,36.30
2018-04-10T01:56:27.686Z,36.85
2018-04-10T01:58:53.728Z,35.80
2018-04-10T02:01:19.730Z,38.67
2018-04-10T02:03:45.787Z,36.33
2018-04-10T02:06:11.827Z,36.30
2018-04-10T02:08:37.933Z,38.60
2018-04-10T02:11:04.051Z,31.83
2018-04-10T02:13:30.040Z,41.33
2018-04-10T02:15:56.133Z,38.45
2018-04-10T02:18:22.131Z,38.05
2018-04-10T02:20:48.241Z,34.33
2018-04-10T02:23:14.493Z,38.35
2018-04-10T02:25:40.706Z,31.87
2018-04-10T02:28:06.739Z,37.35
2018-04-10T02:30:32.765Z,31.33
2018-04-10T02:32:58.848Z,39.40
2018-04-10T02:35:25.019Z,37.95
2018-04-10T02:37:51.117Z,33.85
2018-04-10T02:40:17.151Z,33.50
2018-04-10T02:42:43.251Z,40.35
2018-04-10T02:45:09.339Z,39.33
2018-04-10T02:47:35.363Z,34.17
2018-04-10T02:50:01.350Z,41.58
2018-04-10T02:52:27.375Z,41.23
2018-04-10T02:54:53.393Z,35.47
2018-04-10T02:57:19.437Z,42.53
2018-04-10T02:59:45.460Z,41.60
2018-04-10T03:02:11.570Z,40.78
2018-04-10T03:04:37.582Z,32.80
2018-04-10T03:07:03.573Z,41.92
2018-04-10T03:09:29.592Z,39.83
2018-04-10T03:11:55.628Z,41.00
2018-04-10T03:14:21.628Z,47.33
2018-04-10T03:16:47.690Z,42.22
2018-04-10T03:19:13.734Z,49.92
2018-04-10T03:21:39.760Z,48.25
2018-04-10T03:24:06.055Z,64.15
2018-04-10T03:26:32.056Z,55.10
2018-04-10T03:28:58.072Z,67.97
2018-04-10T03:31:24.097Z,55.08
2018-04-10T03:33:50.168Z,67.75
2018-04-10T03:36:16.337Z,69.93
2018-04-10T03:38:42.367Z,75.90
2018-04-10T03:41:08.375Z,76.57
2018-04-10T03:43:34.487Z,75.40
2018-04-10T03:46:00.558Z,75.65
2018-04-10T03:48:26.614Z,75.65
2018-04-10T03:50:52.652Z,64.10
2018-04-10T03:53:18.775Z,65.05
2018-04-10T03:55:44.920Z,65.25
2018-04-10T03:58:10.984Z,65.37
2018-04-10T04:00:37.029Z,65.18
2018-04-10T04:03:03.109Z,64.53
2018-04-10T04:05:29.220Z,66.57
2018-04-10T04:07:55.315Z,62.53
2018-04-10T04:10:21.363Z,63.35
2018-04-10T04:12:47.357Z,63.67
2018-04-10T04:15:13.463Z,65.60
2018-04-10T04:17:40.471Z,65.72
2018-04-10T04:20:18.762Z,71.78
2018-04-10T04:22:44.823Z,68.30
2018-04-10T04:25:10.859Z,65.93
2018-04-10T04:27:36.907Z,68.28
2018-04-10T04:30:03.131Z,68.10
2018-04-10T04:32:29.635Z,65.15
2018-04-10T04:34:55.695Z,70.72
2018-04-10T04:37:21.735Z,65.10
2018-04-10T04:39:47.772Z,68.00
2018-04-10T04:42:13.786Z,64.57
2018-04-10T04:44:39.787Z,66.30
2018-04-10T04:47:05.813Z,68.93
2018-04-10T04:49:31.962Z,63.67
2018-04-10T04:51:58.007Z,65.87
2018-04-10T04:54:24.008Z,64.45
2018-04-10T04:56:50.104Z,64.27
2018-04-10T04:59:16.138Z,67.90
2018-04-10T05:01:42.232Z,61.47
2018-04-10T05:04:08.283Z,68.37
2018-04-10T05:06:34.363Z,63.05
2018-04-10T05:09:00.631Z,64.60
2018-04-10T05:11:26.868Z,62.20
2018-04-10T05:13:53.036Z,61.72
2018-04-10T05:16:19.043Z,59.45
2018-04-10T05:18:45.123Z,58.38
2018-04-10T05:21:12.835Z,55.80
2018-04-10T05:23:39.493Z,56.37
2018-04-10T05:26:06.685Z,55.67
2018-04-10T05:28:33.389Z,52.65
2018-04-10T05:30:59.902Z,51.60
2018-04-10T05:33:27.856Z,52.53
2018-04-10T05:35:54.263Z,52.00
2018-04-10T05:38:20.290Z,53.67
2018-04-10T05:40:46.332Z,51.42
2018-04-10T05:43:12.502Z,50.72
2018-04-10T05:45:38.764Z,52.20
2018-04-10T05:48:05.091Z,50.27
2018-04-10T05:50:31.107Z,50.20
2018-04-10T05:52:57.135Z,51.22
2018-04-10T05:55:23.482Z,48.80
2018-04-10T05:57:49.525Z,47.80
2018-04-10T06:00:15.608Z,47.67
2018-04-10T06:02:41.711Z,46.70
2018-04-10T06:05:07.768Z,45.97
2018-04-10T06:07:34.817Z,43.87
2018-04-10T06:10:01.099Z,45.40
2018-04-10T06:12:27.170Z,45.20
2018-04-10T06:14:53.262Z,44.10
2018-04-10T06:17:19.335Z,42.97
2018-04-10T06:19:45.491Z,40.63
2018-04-10T06:22:11.597Z,40.73
2018-04-10T06:24:37.630Z,38.17
2018-04-10T06:27:03.757Z,38.37
2018-04-10T06:29:29.784Z,35.63
2018-04-10T06:31:55.967Z,34.70
2018-04-10T06:34:22.031Z,33.03
2018-04-10T06:36:48.116Z,33.13
2018-04-10T06:39:14.237Z,31.80
2018-04-10T06:41:40.245Z,28.50
2018-04-10T06:44:06.300Z,27.77
2018-04-10T06:46:32.441Z,26.13
2018-04-10T06:48:58.880Z,27.30
2018-04-10T06:51:25.164Z,26.50
2018-04-10T06:53:51.313Z,26.23
2018-04-10T06:56:17.365Z,26.43
2018-04-10T06:58:43.380Z,26.50
2018-04-10T07:01:09.448Z,25.27
2018-04-10T07:03:35.516Z,26.27
2018-04-10T07:06:01.572Z,25.77
2018-04-10T07:08:27.621Z,25.73
2018-04-10T07:10:53.733Z,25.23
2018-04-10T07:13:19.763Z,24.63
2018-04-10T07:15:45.885Z,24.37
2018-04-10T07:18:11.937Z,24.37
2018-04-10T07:20:37.980Z,22.57
2018-04-10T07:23:04.004Z,25.60
2018-04-10T07:25:30.072Z,22.47
2018-04-10T07:27:56.377Z,24.10
2018-04-10T07:30:22.479Z,23.47
2018-04-10T07:35:21.388Z,23.13
2018-04-10T07:37:47.397Z,23.87
2018-04-10T07:40:13.504Z,25.20
2018-04-10T07:42:39.544Z,23.60
2018-04-10T07:45:05.626Z,23.67
2018-04-10T07:47:31.663Z,22.67
2018-04-10T07:49:58.200Z,21.13
2018-04-10T07:52:24.218Z,21.57
2018-04-10T07:54:50.330Z,20.33
2018-04-10T07:57:16.380Z,19.17
2018-04-10T07:59:42.410Z,18.80
2018-04-10T08:02:08.504Z,20.13
2018-04-10T08:04:34.704Z,18.37
2018-04-10T08:07:00.889Z,18.93
2018-04-10T08:09:27.028Z,18.70
2018-04-10T08:11:53.061Z,17.57
2018-04-10T08:14:19.188Z,18.17
2018-04-10T08:16:45.785Z,17.43
2018-04-10T08:19:11.822Z,17.73
2018-04-10T08:21:37.858Z,16.63
2018-04-10T08:24:03.883Z,16.00
2018-04-10T08:26:29.955Z,15.73
2018-04-10T08:28:55.990Z,15.33
2018-04-10T08:31:22.057Z,15.63
2018-04-10T08:33:48.167Z,15.27
2018-04-10T08:36:14.240Z,15.93
2018-04-10T08:38:40.281Z,15.63
2018-04-10T08:41:06.381Z,14.73
2018-04-10T08:43:32.456Z,14.13
2018-04-10T08:45:58.615Z,15.30
2018-04-10T08:48:24.645Z,15.33
2018-04-10T08:50:50.786Z,14.93
2018-04-10T08:53:17.435Z,14.73
2018-04-10T08:55:43.465Z,13.60
2018-04-10T08:58:10.555Z,14.40
2018-04-10T09:00:36.677Z,13.40
2018-04-10T09:03:02.836Z,13.73
2018-04-10T09:05:29.029Z,14.03
2018-04-10T09:07:55.059Z,13.00
2018-04-10T09:10:21.148Z,11.93
2018-04-10T09:12:48.200Z,11.90
2018-04-10T09:15:14.219Z,11.60
2018-04-10T09:17:40.208Z,12.33
2018-04-10T09:20:06.267Z,12.13
2018-04-10T09:22:32.290Z,11.63
2018-04-10T09:24:58.779Z,10.73
2018-04-10T09:27:24.885Z,11.43
2018-04-10T09:29:50.939Z,11.37
2018-04-10T09:32:16.994Z,10.50
2018-04-10T09:34:43.161Z,10.37
2018-04-10T09:37:09.239Z,11.17
2018-04-10T09:39:35.269Z,11.23
2018-04-10T09:42:01.333Z,10.50
2018-04-10T09:44:27.364Z,10.67
2018-04-10T09:46:53.399Z,9.17
2018-04-10T09:49:19.432Z,8.63
2018-04-10T09:51:45.530Z,8.47
2018-04-10T09:54:11.573Z,8.93
2018-04-10T09:56:37.580Z,7.90
2018-04-10T09:59:03.610Z,8.80
2018-04-10T10:01:29.682Z,10.67
2018-04-10T10:03:55.731Z,10.87
2018-04-10T10:06:21.765Z,10.30
2018-04-10T10:08:47.764Z,10.90
2018-04-10T10:11:13.810Z,11.33
2018-04-10T10:13:39.848Z,10.60
2018-04-10T10:16:05.934Z,10.07
2018-04-10T10:18:31.960Z,10.17
2018-04-10T10:20:58.204Z,11.20
2018-04-10T10:23:24.619Z,9.60
2018-04-10T10:25:50.711Z,10.77
2018-04-10T10:28:16.724Z,10.70
2018-04-10T10:30:42.987Z,10.73
2018-04-10T10:33:09.110Z,11.57
2018-04-10T10:35:35.173Z,11.53
2018-04-10T10:38:01.200Z,11.00
2018-04-10T10:40:27.189Z,11.93
2018-04-10T10:42:53.469Z,10.77
2018-04-10T10:45:19.475Z,11.20
2018-04-10T10:47:45.615Z,11.00
2018-04-10T10:50:11.683Z,9.97
2018-04-10T10:52:37.704Z,10.50
2018-04-10T10:55:03.736Z,10.43
2018-04-10T10:57:29.762Z,9.73
2018-04-10T10:59:55.865Z,10.17
2018-04-10T11:02:21.898Z,10.50
2018-04-10T11:04:48.029Z,10.70
2018-04-10T11:07:14.073Z,10.83
2018-04-10T11:09:40.103Z,10.30
2018-04-10T11:12:06.106Z,10.63
2018-04-10T11:14:32.149Z,9.80
2018-04-10T11:16:58.160Z,10.20
2018-04-10T11:19:24.266Z,10.40
2018-04-10T11:21:50.244Z,10.17
2018-04-10T11:24:16.281Z,9.70
2018-04-10T11:26:42.391Z,8.83
2018-04-10T11:29:08.416Z,8.77
2018-04-10T11:31:34.456Z,8.27
2018-04-10T11:34:01.513Z,8.07
2018-04-10T11:36:27.527Z,11.40
2018-04-10T11:38:53.582Z,11.17
2018-04-10T11:41:19.609Z,11.33
2018-04-10T11:43:45.663Z,11.43
2018-04-10T11:46:11.712Z,12.73
2018-04-10T11:48:37.724Z,13.07
2018-04-10T11:51:03.794Z,12.37
2018-04-10T11:53:29.896Z,13.17
2018-04-10T11:55:55.948Z,13.50
2018-04-10T11:58:21.983Z,12.87
2018-04-10T12:00:47.979Z,13.60
2018-04-10T12:03:14.017Z,12.07
2018-04-10T12:05:40.082Z,12.43
2018-04-10T12:08:06.216Z,11.83
2018-04-10T12:10:32.236Z,12.00
2018-04-10T12:12:58.252Z,12.00
2018-04-10T12:15:24.344Z,11.90
2018-04-10T12:17:50.412Z,12.53
2018-04-10T12:20:16.439Z,12.43
2018-04-10T12:22:42.546Z,12.27
2018-04-10T12:25:08.654Z,12.20
2018-04-10T12:27:34.712Z,12.37
2018-04-10T12:30:00.764Z,12.63
2018-04-10T12:32:27.038Z,12.33
2018-04-10T12:34:53.400Z,11.07
2018-04-10T12:37:19.724Z,11.27
2018-04-10T12:39:45.762Z,11.47
2018-04-10T12:42:11.776Z,11.20
2018-04-10T12:44:38.013Z,10.20
2018-04-10T12:47:04.055Z,9.73
2018-04-10T12:49:30.987Z,9.83
2018-04-10T12:51:57.341Z,9.33
2018-04-10T12:54:23.440Z,8.97
2018-04-10T12:56:49.626Z,9.40
2018-04-10T12:59:15.744Z,10.37
2018-04-10T13:01:41.870Z,9.03
2018-04-10T13:04:07.912Z,8.33
2018-04-10T13:06:34.102Z,10.10
2018-04-10T13:09:00.416Z,10.67
2018-04-10T13:11:26.600Z,10.83
2018-04-10T13:13:52.775Z,11.23
2018-04-10T13:16:19.828Z,11.47
2018-04-10T13:18:45.956Z,11.10
2018-04-10T13:21:12.036Z,11.00
2018-04-10T13:23:38.150Z,10.30
2018-04-10T13:26:04.177Z,10.50
2018-04-10T13:28:30.309Z,11.07
2018-04-10T13:31:03.284Z,10.90
2018-04-10T13:33:29.303Z,10.67
2018-04-10T13:35:55.480Z,9.80
2018-04-10T13:38:21.574Z,9.67
2018-04-10T13:40:47.664Z,10.17
2018-04-10T13:43:13.810Z,9.83
2018-04-10T13:45:40.186Z,10.00
2018-04-10T13:48:06.248Z,10.00
2018-04-10T13:50:32.284Z,10.33
2018-04-10T13:52:58.332Z,11.43
2018-04-10T13:55:24.553Z,10.10
2018-04-10T13:57:50.597Z,9.57
2018-04-10T14:00:17.273Z,9.23
2018-04-10T14:02:43.440Z,9.63
2018-04-10T14:05:09.516Z,9.43
2018-04-10T14:07:35.616Z,9.67
2018-04-10T14:10:01.689Z,10.27
2018-04-10T14:12:27.807Z,9.07
2018-04-10T14:14:53.926Z,10.20
2018-04-10T14:17:20.002Z,9.30
2018-04-10T14:19:46.177Z,9.50
2018-04-10T14:22:12.491Z,8.43
2018-04-10T14:24:38.535Z,7.80
2018-04-10T14:27:04.816Z,8.30
2018-04-10T14:29:31.863Z,7.30
2018-04-10T14:31:58.038Z,7.47
2018-04-10T14:34:24.117Z,7.73
2018-04-10T14:36:50.272Z,7.13
2018-04-10T14:39:16.979Z,7.07
2018-04-10T14:41:43.158Z,6.93
2018-04-10T14:44:09.193Z,6.57
2018-04-10T14:46:35.270Z,7.30
2018-04-10T14:49:01.467Z,6.70
2018-04-10T14:51:27.465Z,7.20
2018-04-10T14:53:53.511Z,8.13
2018-04-10T14:56:19.632Z,7.70
2018-04-10T14:58:45.690Z,7.97
2018-04-10T15:01:11.788Z,8.40
2018-04-10T15:03:37.852Z,8.10
2018-04-10T15:06:04.235Z,9.00
2018-04-10T15:08:30.245Z,9.60
2018-04-10T15:10:56.535Z,9.27
2018-04-10T15:13:22.960Z,9.67
2018-04-10T15:15:48.985Z,10.27
2018-04-10T15:18:15.058Z,10.50
2018-04-10T15:20:41.587Z,11.10
2018-04-10T15:23:07.678Z,10.73
2018-04-10T15:25:33.704Z,10.33
2018-04-10T15:27:59.798Z,11.07
2018-04-10T15:30:26.445Z,10.87
2018-04-10T15:32:52.842Z,11.77
2018-04-10T15:35:19.003Z,12.60
2018-04-10T15:37:45.219Z,11.97
2018-04-10T15:40:11.265Z,11.83
2018-04-10T15:42:37.295Z,12.27
2018-04-10T15:45:03.499Z,11.53
2018-04-10T15:47:29.717Z,12.60
2018-04-10T15:49:55.773Z,13.17
2018-04-10T15:52:21.785Z,12.50
2018-04-10T15:54:47.827Z,11.97
2018-04-10T15:57:14.085Z,11.77
2018-04-10T15:59:40.141Z,11.37
2018-04-10T16:02:06.268Z,11.10
2018-04-10T16:04:32.512Z,11.63
2018-04-10T16:06:58.751Z,12.00
2018-04-10T16:09:24.977Z,11.90
2018-04-10T16:11:51.187Z,11.63
2018-04-10T16:14:17.253Z,12.07
2018-04-10T16:16:43.311Z,10.93
2018-04-10T16:19:09.361Z,11.33
2018-04-10T16:21:35.375Z,12.57
2018-04-10T16:24:01.420Z,11.63
2018-04-10T16:26:27.438Z,11.53
2018-04-10T16:28:53.475Z,11.73
2018-04-10T16:31:19.503Z,11.00
2018-04-10T16:33:45.554Z,13.07
2018-04-10T16:36:11.656Z,11.03
2018-04-10T16:38:37.682Z,10.67
2018-04-10T16:41:03.702Z,11.47
2018-04-10T16:43:29.681Z,11.93
2018-04-10T16:45:55.693Z,11.60
2018-04-10T16:48:21.746Z,12.83
2018-04-10T16:50:52.254Z,11.27
2018-04-10T16:53:18.341Z,11.60
2018-04-10T16:55:44.380Z,11.97
2018-04-10T16:58:10.393Z,12.83
2018-04-10T17:00:36.443Z,13.17
2018-04-10T17:03:02.535Z,12.93
2018-04-10T17:05:28.739Z,11.93
2018-04-10T17:07:54.759Z,11.63
2018-04-10T17:10:20.945Z,11.10
2018-04-10T17:12:46.996Z,11.57
2018-04-10T17:15:13.144Z,12.00
2018-04-10T17:17:39.256Z,12.13
2018-04-10T17:20:05.305Z,11.53
2018-04-10T17:22:31.341Z,12.03
2018-04-10T17:24:57.594Z,11.57
2018-04-10T17:27:23.600Z,11.70
2018-04-10T17:29:49.854Z,10.67
2018-04-10T17:32:15.916Z,11.97
2018-04-10T17:34:41.955Z,12.67
2018-04-10T17:37:08.011Z,12.33
2018-04-10T17:39:34.014Z,12.20
2018-04-10T17:42:00.108Z,11.70
2018-04-10T17:44:26.227Z,12.37
2018-04-10T17:46:52.950Z,14.67
2018-04-10T17:49:19.008Z,16.73
2018-04-10T17:51:45.077Z,18.50
2018-04-10T17:54:11.108Z,20.73
2018-04-10T17:56:37.225Z,20.90
2018-04-10T17:59:03.327Z,21.27
2018-04-10T18:01:29.416Z,22.13
2018-04-10T18:03:55.548Z,21.97
2018-04-10T18:06:21.606Z,22.03
2018-04-10T18:08:47.624Z,22.77
2018-04-10T18:11:13.661Z,25.07
2018-04-10T18:13:39.862Z,26.97
2018-04-10T18:16:05.961Z,26.13
2018-04-10T18:18:32.041Z,26.67
2018-04-10T18:20:58.095Z,25.87
2018-04-10T18:23:24.120Z,25.13
2018-04-10T18:25:50.149Z,24.47
2018-04-10T18:28:16.185Z,23.97
2018-04-10T18:30:42.243Z,23.43
2018-04-10T18:33:08.400Z,22.70
2018-04-10T18:35:34.493Z,22.57
2018-04-10T18:38:01.332Z,21.20
2018-04-10T18:40:27.374Z,20.13
2018-04-10T18:42:53.489Z,20.93
2018-04-10T18:45:19.508Z,21.77
2018-04-10T18:47:45.596Z,20.03
2018-04-10T18:50:11.654Z,21.40
2018-04-10T18:52:37.720Z,22.43
2018-04-10T18:55:03.826Z,20.97
2018-04-10T18:57:29.883Z,23.57
2018-04-10T18:59:55.943Z,22.23
2018-04-10T19:02:22.008Z,22.90
2018-04-10T19:04:48.051Z,26.50
2018-04-10T19:07:14.298Z,23.47
2018-04-10T19:09:40.457Z,23.97
2018-04-10T19:12:06.525Z,26.33
2018-04-10T19:14:32.934Z,25.47
2018-04-10T19:16:59.865Z,24.83
2018-04-10T19:19:25.945Z,25.40
2018-04-10T19:21:51.990Z,24.63
2018-04-10T19:24:18.037Z,28.60
2018-04-10T19:26:44.072Z,24.03
2018-04-10T19:29:10.153Z,26.50
2018-04-10T19:31:36.194Z,26.10
2018-04-10T19:34:02.272Z,25.23
2018-04-10T19:36:28.326Z,26.03
2018-04-10T19:38:54.456Z,27.33
2018-04-10T19:41:20.489Z,27.63
2018-04-10T19:43:46.582Z,28.20
2018-04-10T19:46:13.261Z,29.27
2018-04-10T19:48:39.307Z,32.23
2018-04-10T19:51:05.437Z,31.50
2018-04-10T19:53:31.528Z,32.07
2018-04-10T19:55:57.571Z,32.67
2018-04-10T19:58:23.570Z,32.43
2018-04-10T20:00:49.656Z,29.97
2018-04-10T20:03:15.676Z,29.17
2018-04-10T20:05:41.723Z,31.47
2018-04-10T20:08:07.807Z,30.13
2018-04-10T20:10:33.872Z,30.33
2018-04-10T20:12:59.928Z,30.63
2018-04-10T20:15:25.941Z,30.63
2018-04-10T20:17:51.947Z,32.70
2018-04-10T20:20:17.991Z,30.67
2018-04-10T20:22:44.029Z,30.50
2018-04-10T20:25:10.117Z,31.37
2018-04-10T20:27:36.185Z,33.77
2018-04-10T20:30:02.223Z,33.63
2018-04-10T20:32:28.251Z,38.30
2018-04-10T20:34:54.352Z,33.47
2018-04-10T20:37:20.396Z,34.83
2018-04-10T20:39:46.407Z,33.73
2018-04-10T20:42:12.441Z,32.37
2018-04-10T20:44:38.637Z,31.90
2018-04-10T20:47:04.828Z,34.87
2018-04-10T20:49:30.897Z,32.03
2018-04-10T20:51:56.985Z,33.27
2018-04-10T20:54:23.354Z,35.73
2018-04-10T20:56:49.578Z,37.47
2018-04-10T20:59:15.622Z,35.70
2018-04-10T21:01:41.635Z,35.77
2018-04-10T21:04:07.668Z,37.40
2018-04-10T21:06:33.706Z,38.90
2018-04-10T21:08:59.744Z,44.03
2018-04-10T21:11:25.821Z,46.93
2018-04-10T21:13:51.828Z,47.00
2018-04-10T21:16:17.882Z,46.27
2018-04-10T21:18:44.403Z,48.10
2018-04-10T21:21:10.444Z,48.83
2018-04-10T21:23:36.657Z,47.80
2018-04-10T21:26:02.790Z,51.20
2018-04-10T21:28:28.939Z,52.20
2018-04-10T21:30:55.048Z,51.47
2018-04-10T21:33:21.103Z,52.60
2018-04-10T21:35:48.148Z,55.37
2018-04-10T21:38:14.195Z,53.30
2018-04-10T21:40:40.203Z,53.60
2018-04-10T21:43:12.332Z,55.80
2018-04-10T21:45:38.423Z,59.63
2018-04-10T21:48:04.432Z,59.43
2018-04-10T21:50:30.577Z,60.37
2018-04-10T21:52:56.738Z,67.37
2018-04-10T21:55:22.784Z,66.20
2018-04-10T21:57:48.854Z,70.20
2018-04-10T22:00:14.973Z,69.00
2018-04-10T22:02:41.143Z,70.00
2018-04-10T22:05:07.244Z,71.80
2018-04-10T22:07:33.354Z,70.33
2018-04-10T22:09:59.427Z,68.43
2018-04-10T22:12:25.556Z,71.50
2018-04-10T22:14:51.648Z,71.27
2018-04-10T22:17:17.688Z,71.20
2018-04-10T22:19:43.728Z,72.47
2018-04-10T22:22:09.803Z,70.10
2018-04-10T22:24:35.837Z,71.80
2018-04-10T22:27:01.963Z,71.17
2018-04-10T22:29:28.084Z,77.10
2018-04-10T22:31:54.732Z,76.13
2018-04-10T22:34:20.933Z,60.97
2018-04-10T22:36:47.095Z,50.23
2018-04-10T22:39:13.149Z,56.93
2018-04-10T22:41:39.217Z,65.97
2018-04-10T22:44:05.345Z,86.10
2018-04-10T22:46:31.428Z,54.30
2018-04-10T22:48:57.484Z,58.40
2018-04-10T22:51:23.550Z,60.00
2018-04-10T22:53:49.660Z,57.60
2018-04-10T22:56:15.713Z,55.07
2018-04-10T22:58:41.716Z,48.83
2018-04-10T23:01:07.796Z,43.58
2018-04-10T23:03:33.878Z,39.38
2018-04-10T23:05:59.950Z,40.67
2018-04-10T23:08:26.006Z,40.97
2018-04-10T23:10:52.006Z,41.10
2018-04-10T23:13:18.003Z,41.50
2018-04-10T23:15:44.083Z,44.67
2018-04-10T23:18:10.175Z,46.63
2018-04-10T23:20:36.214Z,47.75
2018-04-10T23:23:02.259Z,52.00
2018-04-10T23:25:28.384Z,51.23
2018-04-10T23:27:54.520Z,51.47
2018-04-10T23:30:20.564Z,51.60
2018-04-10T23:32:46.558Z,44.65
2018-04-10T23:35:12.677Z,43.40
2018-04-10T23:37:38.772Z,42.97
2018-04-10T23:40:04.921Z,43.63
2018-04-10T23:42:30.993Z,44.50
2018-04-10T23:44:57.070Z,44.15
2018-04-10T23:47:23.170Z,41.05
2018-04-10T23:49:49.301Z,41.70
2018-04-10T23:52:15.327Z,45.92
2018-04-10T23:54:41.358Z,51.05
2018-04-10T23:57:07.453Z,61.22
2018-04-10T23:59:33.456Z,65.30
